createdAt,value
2019-05-11T00:02:06.775Z,29.02
2019-05-11T00:04:36.935Z,27.73
2019-05-11T00:07:04.889Z,26.97
2019-05-11T00:09:34.191Z,27.70
2019-05-11T00:12:02.225Z,27.07
2019-05-11T00:14:30.438Z,25.95
2019-05-11T00:17:00.555Z,28.23
2019-05-11T00:19:29.099Z,27.67
2019-05-11T00:21:56.999Z,26.62
2019-05-11T00:24:24.959Z,27.15
2019-05-11T00:26:57.267Z,28.62
2019-05-11T00:29:25.192Z,28.52
2019-05-11T00:31:53.384Z,29.12
2019-05-11T00:34:21.257Z,29.55
2019-05-11T00:36:51.183Z,30.95
2019-05-11T00:39:19.166Z,32.67
2019-05-11T00:41:48.609Z,30.70
2019-05-11T00:44:19.454Z,29.65
2019-05-11T00:46:48.451Z,31.10
2019-05-11T00:49:16.398Z,31.40
2019-05-11T00:51:44.640Z,31.93
2019-05-11T00:54:13.174Z,31.70
2019-05-11T00:56:41.074Z,33.70
2019-05-11T00:59:21.350Z,30.05
2019-05-11T01:01:40.000Z,33.80
2019-05-11T01:04:09.069Z,30.90
2019-05-11T01:06:36.993Z,30.77
2019-05-11T01:09:06.357Z,33.13
2019-05-11T01:11:37.780Z,32.83
2019-05-11T01:14:06.016Z,30.97
2019-05-11T01:16:36.254Z,34.90
2019-05-11T01:19:04.667Z,32.35
2019-05-11T01:21:32.691Z,33.50
2019-05-11T01:24:00.594Z,32.48
2019-05-11T01:26:34.338Z,32.30
2019-05-11T01:29:03.403Z,32.63
2019-05-11T01:31:31.456Z,30.40
2019-05-11T01:33:59.354Z,32.67
2019-05-11T01:36:27.308Z,29.25
2019-05-11T01:38:59.299Z,30.90
2019-05-11T01:41:27.251Z,32.03
2019-05-11T01:43:55.129Z,31.65
2019-05-11T01:46:23.112Z,30.15
2019-05-11T01:48:51.465Z,31.77
2019-05-11T01:51:20.605Z,31.02
2019-05-11T01:53:48.550Z,31.00
2019-05-11T01:56:17.695Z,33.28
2019-05-11T01:58:45.647Z,34.83
2019-05-11T02:01:15.484Z,35.83
2019-05-11T02:03:43.385Z,33.70
2019-05-11T02:06:11.655Z,34.50
2019-05-11T02:08:39.562Z,34.83
2019-05-11T02:11:16.064Z,35.25
2019-05-11T02:13:37.263Z,34.58
2019-05-11T02:16:05.223Z,33.55
2019-05-11T02:18:34.504Z,32.88
2019-05-11T02:21:04.679Z,34.18
2019-05-11T02:23:34.419Z,33.05
2019-05-11T02:26:02.416Z,32.70
2019-05-11T02:28:30.429Z,32.75
2019-05-11T02:30:58.424Z,35.83
2019-05-11T02:33:26.297Z,37.58
2019-05-11T02:35:54.226Z,35.40
2019-05-11T02:38:22.188Z,36.98
2019-05-11T02:40:50.121Z,37.10
2019-05-11T02:43:18.062Z,38.13
2019-05-11T02:45:46.265Z,37.60
2019-05-11T02:48:14.173Z,38.45
2019-05-11T02:50:42.422Z,35.63
2019-05-11T02:53:12.670Z,35.35
2019-05-11T02:55:40.393Z,39.85
2019-05-11T02:58:08.584Z,40.05
2019-05-11T03:00:40.129Z,37.13
2019-05-11T03:03:10.319Z,37.70
2019-05-11T03:05:38.981Z,40.08
2019-05-11T03:08:06.885Z,42.48
2019-05-11T03:10:34.882Z,36.80
2019-05-11T03:13:02.751Z,36.15
2019-05-11T03:15:30.757Z,36.38
2019-05-11T03:17:58.660Z,38.28
2019-05-11T03:20:26.527Z,37.25
2019-05-11T03:22:54.394Z,36.00
2019-05-11T03:25:22.331Z,35.85
2019-05-11T03:27:50.221Z,36.05
2019-05-11T03:30:19.242Z,38.17
2019-05-11T03:32:50.114Z,36.75
2019-05-11T03:35:18.057Z,36.03
2019-05-11T03:37:47.058Z,37.28
2019-05-11T03:40:17.123Z,37.40
2019-05-11T03:42:46.456Z,35.95
2019-05-11T03:45:14.587Z,36.45
2019-05-11T03:47:42.442Z,40.78
2019-05-11T03:50:10.491Z,35.58
2019-05-11T03:52:42.132Z,36.35
2019-05-11T03:55:12.490Z,38.28
2019-05-11T03:57:40.410Z,35.08
2019-05-11T04:00:08.603Z,39.20
2019-05-11T04:02:36.529Z,40.03
2019-05-11T04:05:04.837Z,40.80
2019-05-11T04:07:34.854Z,38.92
2019-05-11T04:10:03.725Z,37.85
2019-05-11T04:12:35.131Z,40.35
2019-05-11T04:15:02.393Z,36.95
2019-05-11T04:17:31.604Z,34.78
2019-05-11T04:19:59.524Z,35.70
2019-05-11T04:22:27.436Z,36.65
2019-05-11T04:24:55.311Z,37.53
2019-05-11T04:27:23.225Z,36.58
2019-05-11T04:29:51.068Z,36.80
2019-05-11T04:32:19.355Z,35.50
2019-05-11T04:34:55.095Z,35.33
2019-05-11T04:37:26.167Z,35.85
2019-05-11T04:39:54.115Z,37.15
2019-05-11T04:42:22.052Z,38.40
2019-05-11T04:44:52.421Z,38.00
2019-05-11T04:47:20.956Z,37.55
2019-05-11T04:49:48.932Z,35.23
2019-05-11T04:52:18.197Z,34.80
2019-05-11T04:54:46.055Z,36.10
2019-05-11T04:57:14.031Z,32.90
2019-05-11T04:59:47.748Z,35.10
2019-05-11T05:02:11.523Z,35.15
2019-05-11T05:04:39.450Z,32.90
2019-05-11T05:07:10.571Z,32.58
2019-05-11T05:09:42.414Z,29.02
2019-05-11T05:12:14.097Z,30.97
2019-05-11T05:14:40.022Z,29.32
2019-05-11T05:17:16.377Z,26.97
2019-05-11T05:19:44.764Z,28.77
2019-05-11T05:22:12.600Z,29.90
2019-05-11T05:24:40.532Z,27.82
2019-05-11T05:27:08.396Z,27.70
2019-05-11T05:29:36.301Z,26.95
2019-05-11T05:32:04.475Z,26.42
2019-05-11T05:34:32.417Z,26.33
2019-05-11T05:37:00.266Z,27.90
2019-05-11T05:39:28.432Z,24.30
2019-05-11T05:41:57.622Z,24.15
2019-05-11T05:44:28.020Z,24.30
2019-05-11T05:46:56.053Z,24.45
2019-05-11T05:49:24.135Z,22.62
2019-05-11T05:51:51.988Z,21.82
2019-05-11T05:54:19.857Z,21.93
2019-05-11T05:56:47.757Z,20.62
2019-05-11T05:59:15.633Z,21.80
2019-05-11T06:01:43.495Z,22.58
2019-05-11T06:04:11.342Z,22.45
2019-05-11T06:06:39.198Z,20.92
2019-05-11T06:09:07.478Z,21.65
2019-05-11T06:11:35.354Z,20.60
2019-05-11T06:14:03.210Z,20.75
2019-05-11T06:16:31.088Z,21.07
2019-05-11T06:18:58.906Z,20.23
2019-05-11T06:21:27.003Z,18.12
2019-05-11T06:23:54.814Z,20.08
2019-05-11T06:26:22.702Z,20.70
2019-05-11T06:28:50.539Z,21.82
2019-05-11T06:31:18.394Z,21.23
2019-05-11T06:33:46.223Z,21.37
2019-05-11T06:36:14.091Z,20.57
2019-05-11T06:38:41.899Z,18.65
2019-05-11T06:41:09.753Z,20.37
2019-05-11T06:43:37.726Z,19.15
2019-05-11T06:46:05.662Z,19.35
2019-05-11T06:48:33.498Z,20.52
2019-05-11T06:51:01.347Z,21.23
2019-05-11T06:53:29.531Z,21.40
2019-05-11T06:55:57.397Z,23.45
2019-05-11T06:58:25.254Z,18.37
2019-05-11T07:00:53.070Z,18.32
2019-05-11T07:03:20.962Z,19.92
2019-05-11T07:05:48.809Z,19.75
2019-05-11T07:08:16.683Z,17.92
2019-05-11T07:10:44.539Z,19.30
2019-05-11T07:13:12.442Z,19.05
2019-05-11T07:15:40.267Z,20.75
2019-05-11T07:18:08.130Z,20.75
2019-05-11T07:20:49.374Z,20.17
2019-05-11T07:23:05.567Z,20.23
2019-05-11T07:25:33.479Z,19.67
2019-05-11T07:28:01.330Z,20.55
2019-05-11T07:30:29.146Z,19.20
2019-05-11T07:32:58.110Z,21.05
2019-05-11T07:35:27.901Z,18.57
2019-05-11T07:37:57.959Z,19.20
2019-05-11T07:40:27.815Z,18.37
2019-05-11T07:42:55.066Z,18.62
2019-05-11T07:45:22.938Z,17.77
2019-05-11T07:47:50.826Z,18.15
2019-05-11T07:50:18.615Z,19.30
2019-05-11T07:52:48.338Z,18.73
2019-05-11T07:55:16.069Z,20.10
2019-05-11T07:57:43.918Z,18.82
2019-05-11T08:00:11.781Z,17.75
2019-05-11T08:02:39.623Z,17.42
2019-05-11T08:05:08.645Z,17.12
2019-05-11T08:07:37.850Z,18.50
2019-05-11T08:10:08.217Z,17.50
2019-05-11T08:12:38.291Z,15.93
2019-05-11T08:15:12.394Z,16.42
2019-05-11T08:17:37.945Z,18.37
2019-05-11T08:20:05.437Z,17.62
2019-05-11T08:22:33.282Z,16.55
2019-05-11T08:25:01.158Z,17.07
2019-05-11T08:27:29.032Z,18.77
2019-05-11T08:29:57.973Z,16.62
2019-05-11T08:32:28.454Z,17.57
2019-05-11T08:34:57.940Z,17.92
2019-05-11T08:37:25.165Z,17.85
2019-05-11T08:39:52.999Z,16.20
2019-05-11T08:42:20.869Z,16.87
2019-05-11T08:44:48.781Z,20.68
2019-05-11T08:47:17.916Z,18.80
2019-05-11T08:49:47.882Z,17.70
2019-05-11T08:52:15.434Z,19.05
2019-05-11T08:54:43.352Z,17.73
2019-05-11T08:57:11.238Z,16.27
2019-05-11T08:59:40.807Z,16.85
2019-05-11T09:02:09.018Z,16.50
2019-05-11T09:04:41.588Z,18.25
2019-05-11T09:07:07.895Z,16.00
2019-05-11T09:09:37.977Z,17.07
2019-05-11T09:12:08.009Z,16.97
2019-05-11T09:14:35.867Z,18.10
2019-05-11T09:17:03.743Z,15.83
2019-05-11T09:19:31.602Z,15.88
2019-05-11T09:22:02.904Z,14.20
2019-05-11T09:24:29.087Z,15.75
2019-05-11T09:26:58.557Z,14.38
2019-05-11T09:29:28.132Z,15.75
2019-05-11T09:31:58.300Z,15.48
2019-05-11T09:34:25.938Z,16.23
2019-05-11T09:36:53.874Z,12.80
2019-05-11T09:39:21.761Z,13.43
2019-05-11T09:41:49.715Z,12.82
2019-05-11T09:44:18.476Z,13.62
2019-05-11T09:46:47.787Z,15.38
2019-05-11T09:49:18.355Z,13.00
2019-05-11T09:51:48.429Z,14.13
2019-05-11T09:54:18.262Z,13.85
2019-05-11T09:56:48.451Z,14.70
2019-05-11T09:59:17.695Z,12.20
2019-05-11T10:01:45.280Z,15.32
2019-05-11T10:04:13.156Z,14.38
2019-05-11T10:06:41.035Z,16.27
2019-05-11T10:09:08.989Z,15.25
2019-05-11T10:11:36.897Z,15.90
2019-05-11T10:14:04.811Z,15.70
2019-05-11T10:16:32.742Z,14.35
2019-05-11T10:19:00.750Z,14.83
2019-05-11T10:21:28.609Z,15.18
2019-05-11T10:24:00.066Z,16.30
2019-05-11T10:26:29.198Z,16.45
2019-05-11T10:28:58.921Z,15.60
2019-05-11T10:31:28.563Z,14.70
2019-05-11T10:33:58.034Z,15.40
2019-05-11T10:36:28.003Z,13.45
2019-05-11T10:38:55.858Z,12.82
2019-05-11T10:41:23.742Z,12.82
2019-05-11T10:43:51.838Z,14.38
2019-05-11T10:46:23.524Z,13.60
2019-05-11T10:48:51.401Z,11.90
2019-05-11T10:51:20.201Z,12.63
2019-05-11T10:53:51.810Z,14.45
2019-05-11T10:56:19.354Z,13.55
2019-05-11T10:58:49.890Z,14.70
2019-05-11T11:01:19.448Z,14.10
2019-05-11T11:03:49.678Z,14.60
2019-05-11T11:06:18.820Z,15.20
2019-05-11T11:08:48.680Z,12.88
2019-05-11T11:11:18.578Z,13.58
2019-05-11T11:13:47.983Z,11.93
2019-05-11T11:16:30.812Z,8.30
2019-05-11T11:18:45.589Z,7.67
2019-05-11T11:21:13.479Z,8.23
2019-05-11T11:23:48.026Z,7.30
2019-05-11T11:26:18.243Z,7.17
2019-05-11T11:28:47.834Z,6.55
2019-05-11T11:31:15.573Z,6.45
2019-05-11T11:33:43.546Z,5.83
2019-05-11T11:36:11.963Z,6.35
2019-05-11T11:38:39.920Z,6.53
2019-05-11T11:41:07.832Z,5.12
2019-05-11T11:43:37.784Z,6.33
2019-05-11T11:46:05.405Z,6.28
2019-05-11T11:48:33.799Z,6.47
2019-05-11T11:51:01.671Z,5.90
2019-05-11T11:53:30.692Z,6.53
2019-05-11T11:56:00.058Z,6.10
2019-05-11T11:58:30.828Z,6.35
2019-05-11T12:00:58.818Z,6.20
2019-05-11T12:03:27.704Z,5.85
2019-05-11T12:05:58.021Z,6.53
2019-05-11T12:08:28.046Z,6.30
2019-05-11T12:10:55.895Z,6.08
2019-05-11T12:13:26.427Z,5.83
2019-05-11T12:15:53.544Z,6.72
2019-05-11T12:18:21.423Z,5.78
2019-05-11T12:20:49.266Z,6.08
2019-05-11T12:23:18.019Z,5.80
2019-05-11T12:25:48.573Z,6.17
2019-05-11T12:28:15.700Z,6.15
2019-05-11T12:30:43.548Z,5.78
2019-05-11T12:33:11.397Z,5.70
2019-05-11T12:35:39.228Z,5.70
2019-05-11T12:38:07.811Z,5.30
2019-05-11T12:40:35.899Z,6.03
2019-05-11T12:43:03.724Z,6.10
2019-05-11T12:45:31.551Z,5.80
2019-05-11T12:47:59.446Z,5.20
2019-05-11T12:50:28.629Z,6.00
2019-05-11T12:52:58.874Z,6.10
2019-05-11T12:55:28.424Z,6.58
2019-05-11T12:57:57.939Z,6.12
2019-05-11T13:00:30.457Z,5.97
2019-05-11T13:02:55.254Z,5.53
2019-05-11T13:05:23.391Z,6.95
2019-05-11T13:07:51.254Z,5.75
2019-05-11T13:10:19.139Z,6.25
2019-05-11T13:12:49.030Z,6.08
2019-05-11T13:15:17.537Z,7.25
2019-05-11T13:17:45.637Z,7.37
2019-05-11T13:20:13.587Z,5.85
2019-05-11T13:22:41.404Z,5.87
2019-05-11T13:25:09.358Z,5.60
2019-05-11T13:27:38.629Z,5.47
2019-05-11T13:30:07.960Z,5.17
2019-05-11T13:32:38.250Z,5.45
2019-05-11T13:35:05.525Z,5.47
2019-05-11T13:37:33.430Z,4.92
2019-05-11T13:40:01.748Z,5.55
2019-05-11T13:42:29.575Z,5.40
2019-05-11T13:44:58.430Z,4.83
2019-05-11T13:47:28.255Z,6.97
2019-05-11T13:49:58.272Z,5.47
2019-05-11T13:52:25.507Z,5.47
2019-05-11T13:54:53.402Z,5.55
2019-05-11T13:57:21.291Z,5.00
2019-05-11T13:59:49.129Z,5.83
2019-05-11T14:02:18.033Z,6.40
2019-05-11T14:04:48.087Z,6.80
2019-05-11T14:07:15.730Z,5.95
2019-05-11T14:09:43.604Z,5.78
2019-05-11T14:12:11.450Z,5.33
2019-05-11T14:14:39.263Z,5.75
2019-05-11T14:17:08.284Z,5.72
2019-05-11T14:19:38.445Z,5.97
2019-05-11T14:22:05.790Z,6.05
2019-05-11T14:24:33.631Z,6.20
2019-05-11T14:27:01.572Z,6.10
2019-05-11T14:29:29.470Z,6.05
2019-05-11T14:31:58.141Z,6.17
2019-05-11T14:34:28.329Z,5.80
2019-05-11T14:36:58.048Z,5.83
2019-05-11T14:39:27.807Z,8.35
2019-05-11T14:41:55.095Z,6.00
2019-05-11T14:44:22.962Z,5.80
2019-05-11T14:46:50.794Z,7.10
2019-05-11T14:49:18.833Z,8.95
2019-05-11T14:51:48.505Z,7.72
2019-05-11T14:54:18.556Z,6.58
2019-05-11T14:56:47.975Z,6.30
2019-05-11T14:59:18.169Z,6.72
2019-05-11T15:01:45.073Z,6.17
2019-05-11T15:04:12.939Z,6.72
2019-05-11T15:06:40.757Z,6.95
2019-05-11T15:09:09.363Z,6.28
2019-05-11T15:11:38.875Z,6.62
2019-05-11T15:14:08.158Z,6.70
2019-05-11T15:16:38.283Z,6.12
2019-05-11T15:19:07.868Z,6.15
2019-05-11T15:21:35.357Z,6.37
2019-05-11T15:24:03.241Z,6.75
2019-05-11T15:26:31.065Z,6.58
2019-05-11T15:28:58.951Z,6.83
2019-05-11T15:31:27.869Z,7.03
2019-05-11T15:33:57.726Z,6.92
2019-05-11T15:36:25.466Z,7.40
2019-05-11T15:38:53.299Z,7.62
2019-05-11T15:41:21.134Z,7.53
2019-05-11T15:43:48.962Z,7.05
2019-05-11T15:46:19.558Z,5.87
2019-05-11T15:48:56.628Z,7.10
2019-05-11T15:51:15.950Z,7.05
2019-05-11T15:53:43.789Z,7.87
2019-05-11T15:56:11.711Z,6.40
2019-05-11T15:58:39.561Z,5.95
2019-05-11T16:01:08.000Z,6.08
2019-05-11T16:03:35.917Z,4.75
2019-05-11T16:06:03.800Z,5.42
2019-05-11T16:08:31.600Z,5.30
2019-05-11T16:10:59.633Z,4.83
2019-05-11T16:13:28.452Z,4.72
2019-05-11T16:15:57.703Z,4.50
2019-05-11T16:18:25.763Z,3.58
2019-05-11T16:20:53.627Z,3.35
2019-05-11T16:23:21.478Z,4.62
2019-05-11T16:25:49.329Z,3.55
2019-05-11T16:28:19.355Z,3.75
2019-05-11T16:30:48.154Z,3.37
2019-05-11T16:33:17.952Z,4.25
2019-05-11T16:35:45.867Z,3.47
2019-05-11T16:38:14.045Z,4.12
2019-05-11T16:40:41.859Z,3.65
2019-05-11T16:43:09.739Z,3.33
2019-05-11T16:45:37.610Z,4.00
2019-05-11T16:48:07.784Z,3.40
2019-05-11T16:50:35.078Z,3.10
2019-05-11T16:53:02.953Z,3.50
2019-05-11T16:55:30.789Z,4.40
2019-05-11T16:57:58.926Z,3.35
2019-05-11T17:00:27.220Z,3.60
2019-05-11T17:02:55.083Z,3.67
2019-05-11T17:05:29.829Z,3.00
2019-05-11T17:07:52.526Z,3.35
2019-05-11T17:10:20.483Z,3.33
2019-05-11T17:12:48.937Z,8.38
2019-05-11T17:15:18.483Z,9.40
2019-05-11T17:17:48.596Z,19.57
2019-05-11T17:20:18.650Z,14.50
2019-05-11T17:22:47.938Z,49.10
2019-05-11T17:25:18.775Z,37.75
2019-05-11T17:27:48.264Z,110.45
2019-05-11T17:30:16.140Z,47.78
2019-05-11T17:32:44.005Z,103.40
2019-05-11T17:35:12.006Z,10.00
2019-05-11T17:37:39.857Z,6.45
2019-05-11T17:40:09.022Z,19.35
2019-05-11T17:42:37.838Z,3.58
2019-05-11T17:45:07.937Z,42.25
2019-05-11T17:47:35.852Z,19.57
2019-05-11T17:50:04.196Z,19.75
2019-05-11T17:52:32.094Z,3.70
2019-05-11T17:54:59.926Z,2.22
2019-05-11T17:57:27.878Z,2.80
2019-05-11T17:59:57.932Z,3.10
2019-05-11T18:02:25.322Z,1.87
2019-05-11T18:04:53.201Z,2.00
2019-05-11T18:07:27.049Z,2.20
2019-05-11T18:09:50.805Z,2.75
2019-05-11T18:12:18.688Z,1.62
2019-05-11T18:14:48.252Z,1.90
2019-05-11T18:17:17.898Z,1.77
2019-05-11T18:19:45.913Z,1.80
2019-05-11T18:22:13.880Z,1.90
2019-05-11T18:24:41.774Z,2.00
2019-05-11T18:27:09.600Z,2.60
2019-05-11T18:29:38.027Z,1.90
2019-05-11T18:32:06.013Z,1.90
2019-05-11T18:34:33.927Z,2.00
2019-05-11T18:37:01.822Z,1.95
2019-05-11T18:39:29.689Z,1.95
2019-05-11T18:41:58.692Z,2.20
2019-05-11T18:44:26.830Z,2.17
2019-05-11T18:46:54.690Z,2.17
2019-05-11T18:49:22.750Z,1.90
2019-05-11T18:51:50.738Z,1.77
2019-05-11T18:54:19.198Z,1.82
2019-05-11T18:56:48.807Z,1.92
2019-05-11T18:59:19.330Z,1.90
2019-05-11T19:01:48.486Z,1.95
2019-05-11T19:04:18.204Z,1.85
2019-05-11T19:06:45.732Z,1.80
2019-05-11T19:09:13.586Z,2.12
2019-05-11T19:11:42.824Z,3.27
2019-05-11T19:14:10.877Z,1.95
2019-05-11T19:16:39.073Z,1.47
2019-05-11T19:19:08.087Z,1.77
2019-05-11T19:21:36.253Z,1.60
2019-05-11T19:24:06.027Z,4.22
2019-05-11T19:26:33.677Z,3.90
2019-05-11T19:29:01.542Z,2.58
2019-05-11T19:31:29.373Z,3.72
2019-05-11T19:33:58.195Z,2.60
2019-05-11T19:36:27.717Z,2.92
2019-05-11T19:38:58.288Z,2.40
2019-05-11T19:41:27.326Z,2.40
2019-05-11T19:43:54.895Z,2.40
2019-05-11T19:46:22.737Z,2.22
2019-05-11T19:48:50.635Z,2.87
2019-05-11T19:51:18.750Z,1.95
2019-05-11T19:53:48.385Z,1.70
2019-05-11T19:56:18.256Z,2.10
2019-05-11T19:58:48.414Z,2.00
2019-05-11T20:01:15.691Z,2.40
2019-05-11T20:03:43.554Z,2.52
2019-05-11T20:06:11.423Z,2.30
2019-05-11T20:08:39.315Z,7.12
2019-05-11T20:11:08.235Z,2.90
2019-05-11T20:13:38.653Z,4.03
2019-05-11T20:16:08.119Z,2.65
2019-05-11T20:18:35.515Z,2.00
2019-05-11T20:21:15.480Z,2.30
2019-05-11T20:23:33.019Z,2.37
2019-05-11T20:26:00.873Z,2.50
2019-05-11T20:28:28.733Z,2.40
2019-05-11T20:30:58.758Z,2.70
2019-05-11T20:33:27.951Z,2.55
2019-05-11T20:35:57.938Z,2.20
2019-05-11T20:38:25.323Z,2.45
2019-05-11T20:40:53.197Z,2.85
2019-05-11T20:43:21.083Z,2.40
2019-05-11T20:45:48.966Z,2.67
2019-05-11T20:48:18.473Z,2.85
2019-05-11T20:50:48.322Z,3.00
2019-05-11T20:53:18.010Z,3.08
2019-05-11T20:55:47.884Z,2.67
2019-05-11T20:58:18.484Z,2.20
2019-05-11T21:00:45.929Z,2.70
2019-05-11T21:03:13.747Z,2.15
2019-05-11T21:05:41.650Z,2.42
2019-05-11T21:08:09.537Z,2.40
2019-05-11T21:10:38.599Z,2.27
2019-05-11T21:13:08.588Z,2.55
2019-05-11T21:15:38.453Z,2.40
2019-05-11T21:18:07.948Z,2.40
2019-05-11T21:20:38.027Z,2.70
2019-05-11T21:23:08.121Z,2.60
2019-05-11T21:25:37.673Z,2.92
2019-05-11T21:28:05.406Z,3.67
2019-05-11T21:30:33.256Z,3.20
2019-05-11T21:33:01.115Z,2.95
2019-05-11T21:35:28.970Z,3.55
2019-05-11T21:37:58.010Z,2.20
2019-05-11T21:40:26.151Z,3.45
2019-05-11T21:42:54.043Z,3.20
2019-05-11T21:45:22.177Z,3.90
2019-05-11T21:47:50.091Z,3.37
2019-05-11T21:50:19.080Z,3.12
2019-05-11T21:52:48.460Z,2.95
2019-05-11T21:55:16.464Z,2.62
2019-05-11T21:57:44.319Z,3.47
2019-05-11T22:00:12.442Z,3.90
2019-05-11T22:02:40.399Z,3.00
2019-05-11T22:05:08.729Z,3.15
2019-05-11T22:07:41.374Z,3.00
2019-05-11T22:10:08.891Z,2.65
2019-05-11T22:12:38.869Z,3.08
2019-05-11T22:15:08.796Z,3.20
2019-05-11T22:17:35.750Z,4.20
2019-05-11T22:20:03.613Z,3.47
2019-05-11T22:22:31.507Z,2.90
2019-05-11T22:24:59.419Z,3.15
2019-05-11T22:27:27.796Z,4.45
2019-05-11T22:29:56.139Z,3.00
2019-05-11T22:32:23.974Z,3.15
2019-05-11T22:34:51.838Z,2.75
2019-05-11T22:37:19.666Z,3.15
2019-05-11T22:39:49.446Z,2.85
2019-05-11T22:42:18.449Z,3.08
2019-05-11T22:44:48.352Z,3.25
2019-05-11T22:47:17.876Z,4.08
2019-05-11T22:49:49.630Z,3.60
2019-05-11T22:52:17.771Z,3.77
2019-05-11T22:54:44.766Z,3.37
2019-05-11T22:57:12.651Z,3.60
2019-05-11T22:59:40.574Z,3.40
2019-05-11T23:02:10.852Z,3.47
2019-05-11T23:04:38.199Z,3.35
2019-05-11T23:07:07.933Z,2.92
2019-05-11T23:09:38.006Z,3.10
2019-05-11T23:12:05.292Z,3.40
2019-05-11T23:14:33.167Z,2.80
2019-05-11T23:17:01.026Z,2.87
2019-05-11T23:19:28.911Z,3.05
2019-05-11T23:21:58.684Z,4.87
2019-05-11T23:24:28.588Z,3.25
2019-05-11T23:26:55.906Z,3.75
2019-05-11T23:29:23.782Z,3.20
2019-05-11T23:31:52.526Z,2.70
2019-05-11T23:34:20.355Z,2.70
2019-05-11T23:36:48.750Z,4.15
2019-05-11T23:39:17.835Z,3.40
2019-05-11T23:41:48.129Z,2.95
2019-05-11T23:44:17.811Z,3.42
2019-05-11T23:46:47.731Z,3.08
2019-05-11T23:49:15.107Z,3.10
2019-05-11T23:51:42.938Z,3.42
2019-05-11T23:54:10.778Z,3.50
2019-05-11T23:56:38.821Z,2.92
2019-05-11T23:59:08.245Z,3.25
